createdAt,value
2016-08-25T00:01:02.348Z,20.41
2016-08-25T00:02:13.919Z,20.26
2016-08-25T00:03:25.489Z,20.27
2016-08-25T00:04:37.054Z,20.27
2016-08-25T00:05:48.635Z,20.26
2016-08-25T00:07:00.902Z,20.22
2016-08-25T00:08:11.769Z,20.26
2016-08-25T00:09:23.346Z,20.23
2016-08-25T00:10:34.214Z,20.27
2016-08-25T00:11:45.807Z,20.2
2016-08-25T00:12:57.372Z,20.2
2016-08-25T00:14:07.535Z,20.23
2016-08-25T00:15:18.394Z,20.25
2016-08-25T00:16:29.964Z,20.18
2016-08-25T00:17:42.221Z,20.15
2016-08-25T00:18:53.784Z,20.15
2016-08-25T00:20:06.062Z,20.12
2016-08-25T00:21:16.939Z,20.08
2016-08-25T00:22:28.522Z,20.05
2016-08-25T00:23:40.820Z,20.04
2016-08-25T00:24:52.396Z,20
2016-08-25T00:26:03.997Z,20.11
2016-08-25T00:27:15.557Z,20.02
2016-08-25T00:28:27.114Z,19.98
2016-08-25T00:29:38.697Z,19.98
2016-08-25T00:30:50.261Z,19.97
2016-08-25T00:32:01.841Z,19.97
2016-08-25T00:33:12.716Z,19.95
2016-08-25T00:34:24.304Z,19.9
2016-08-25T00:35:35.898Z,19.98
2016-08-25T00:36:47.469Z,19.98
2016-08-25T00:37:59.757Z,19.93
2016-08-25T00:39:11.325Z,19.97
2016-08-25T00:40:22.895Z,19.92
2016-08-25T00:41:35.169Z,19.85
2016-08-25T00:42:46.806Z,19.86
2016-08-25T00:43:59.099Z,19.87
2016-08-25T00:45:11.373Z,19.83
2016-08-25T00:46:23.655Z,19.8
2016-08-25T00:47:34.539Z,19.78
2016-08-25T00:48:46.133Z,19.85
2016-08-25T00:49:57.732Z,19.8
2016-08-25T00:51:09.992Z,19.78
2016-08-25T00:52:21.578Z,19.78
2016-08-25T00:53:33.866Z,19.86
2016-08-25T00:54:45.459Z,19.85
2016-08-25T00:55:56.330Z,19.8
2016-08-25T00:57:07.196Z,19.78
2016-08-25T00:58:19.689Z,19.75
2016-08-25T00:59:31.965Z,19.78
2016-08-25T01:00:44.226Z,19.67
2016-08-25T01:01:55.105Z,19.7
2016-08-25T01:03:07.407Z,19.65
2016-08-25T01:04:18.267Z,19.63
2016-08-25T01:05:30.553Z,19.64
2016-08-25T01:06:42.838Z,19.65
2016-08-25T01:07:54.402Z,19.63
2016-08-25T01:09:06.683Z,19.6
2016-08-25T01:10:18.970Z,19.55
2016-08-25T01:11:31.246Z,19.64
2016-08-25T01:12:42.813Z,19.56
2016-08-25T01:13:54.402Z,19.55
2016-08-25T01:15:05.957Z,19.56
2016-08-25T01:16:17.530Z,19.57
2016-08-25T01:17:29.111Z,19.53
2016-08-25T01:18:41.381Z,19.46
2016-08-25T01:19:52.960Z,19.49
2016-08-25T01:21:05.239Z,19.42
2016-08-25T01:22:16.815Z,19.35
2016-08-25T01:23:28.390Z,19.45
2016-08-25T01:24:40.663Z,19.37
2016-08-25T01:25:52.251Z,19.4
2016-08-25T01:27:03.852Z,19.43
2016-08-25T01:28:16.114Z,19.46
2016-08-25T01:29:26.975Z,19.32
2016-08-25T01:30:37.841Z,19.31
2016-08-25T01:31:49.413Z,19.28
2016-08-25T01:33:00.275Z,19.31
2016-08-25T01:34:12.563Z,19.34
2016-08-25T01:35:24.833Z,19.35
2016-08-25T01:36:36.413Z,19.28
2016-08-25T01:37:47.982Z,19.28
2016-08-25T01:38:59.551Z,19.27
2016-08-25T01:40:11.829Z,19.31
2016-08-25T01:41:24.342Z,19.32
2016-08-25T01:42:36.617Z,19.31
2016-08-25T01:43:47.485Z,19.24
2016-08-25T01:44:59.048Z,19.25
2016-08-25T01:46:11.342Z,19.2
2016-08-25T01:47:22.922Z,19.19
2016-08-25T01:48:33.805Z,19.24
2016-08-25T01:49:46.102Z,19.23
2016-08-25T01:50:58.383Z,19.23
2016-08-25T01:52:09.949Z,19.23
2016-08-25T01:53:22.211Z,19.15
2016-08-25T01:54:33.785Z,19.17
2016-08-25T01:55:46.047Z,19.07
2016-08-25T01:56:58.325Z,19.13
2016-08-25T01:58:10.597Z,19.15
2016-08-25T01:59:22.170Z,19.15
2016-08-25T02:00:33.036Z,19.12
2016-08-25T02:01:45.315Z,19.07
2016-08-25T02:02:57.586Z,19.12
2016-08-25T02:04:09.855Z,19.07
2016-08-25T02:05:20.732Z,19.09
2016-08-25T02:06:31.611Z,19.07
2016-08-25T02:07:43.889Z,19.02
2016-08-25T02:08:56.178Z,19.02
2016-08-25T02:10:07.743Z,18.97
2016-08-25T02:11:19.315Z,18.97
2016-08-25T02:12:30.913Z,18.96
2016-08-25T02:13:43.532Z,19.02
2016-08-25T02:14:58.452Z,18.99
2016-08-25T02:16:10.919Z,18.97
2016-08-25T02:17:22.484Z,18.99
2016-08-25T02:18:34.798Z,18.94
2016-08-25T02:19:47.060Z,18.91
2016-08-25T02:20:59.334Z,19.06
2016-08-25T02:22:10.913Z,18.93
2016-08-25T02:23:23.185Z,18.93
2016-08-25T02:24:34.741Z,18.96
2016-08-25T02:25:45.605Z,18.89
2016-08-25T02:26:57.880Z,18.91
2016-08-25T02:28:09.451Z,18.86
2016-08-25T02:29:21.706Z,18.89
2016-08-25T02:30:33.965Z,18.87
2016-08-25T02:31:45.528Z,18.93
2016-08-25T02:32:57.791Z,18.86
2016-08-25T02:34:09.435Z,18.9
2016-08-25T02:35:20.987Z,18.91
2016-08-25T02:36:32.574Z,18.87
2016-08-25T02:37:44.842Z,18.82
2016-08-25T02:38:57.102Z,18.89
2016-08-25T02:40:07.973Z,18.89
2016-08-25T02:41:20.252Z,18.84
2016-08-25T02:42:32.508Z,18.81
2016-08-25T02:43:44.776Z,18.78
2016-08-25T02:44:57.060Z,18.81
2016-08-25T02:46:08.624Z,18.78
2016-08-25T02:47:20.206Z,18.79
2016-08-25T02:48:32.469Z,18.79
2016-08-25T02:49:42.641Z,18.79
2016-08-25T02:50:54.206Z,18.84
2016-08-25T02:52:05.779Z,18.93
2016-08-25T02:53:17.355Z,18.86
2016-08-25T02:54:28.912Z,18.84
2016-08-25T02:55:39.772Z,18.9
2016-08-25T02:56:52.053Z,18.91
2016-08-25T02:58:04.343Z,18.86
2016-08-25T03:30:58.369Z,15.65
2016-08-25T03:32:10.632Z,15.58
2016-08-25T03:33:21.489Z,15.6
2016-08-25T03:34:33.767Z,15.68
2016-08-25T03:35:46.078Z,15.74
2016-08-25T03:36:56.944Z,15.78
2016-08-25T03:38:08.507Z,15.99
2016-08-25T03:39:20.088Z,16
2016-08-25T03:40:31.649Z,16.21
2016-08-25T03:41:42.506Z,16.36
2016-08-25T03:42:53.371Z,16.4
2016-08-25T03:44:04.937Z,16.49
2016-08-25T03:45:17.210Z,16.66
2016-08-25T03:46:28.779Z,16.95
2016-08-25T03:47:40.364Z,16.99
2016-08-25T03:48:52.655Z,17.09
2016-08-25T03:50:04.222Z,17.31
2016-08-25T03:51:15.795Z,17.36
2016-08-25T03:52:28.070Z,17.45
2016-08-25T03:53:40.350Z,17.57
2016-08-25T03:54:51.926Z,17.55
2016-08-25T03:56:02.074Z,17.68
2016-08-25T03:57:12.939Z,17.76
2016-08-25T03:58:24.496Z,17.8
2016-08-25T03:59:35.367Z,17.94
2016-08-25T04:00:46.967Z,17.99
2016-08-25T04:01:59.242Z,18.05
2016-08-25T04:03:10.818Z,18.13
2016-08-25T04:04:22.414Z,18.1
2016-08-25T04:05:33.280Z,18.1
2016-08-25T04:06:44.159Z,18.2
2016-08-25T04:07:55.723Z,18.16
2016-08-25T04:09:07.295Z,18.21
2016-08-25T04:10:18.873Z,18.2
2016-08-25T04:11:29.733Z,18.31
2016-08-25T04:12:41.327Z,18.21
2016-08-25T04:13:53.615Z,18.34
2016-08-25T04:15:05.895Z,18.39
2016-08-25T04:16:17.466Z,18.45
2016-08-25T04:17:29.758Z,18.44
2016-08-25T04:18:40.630Z,18.42
2016-08-25T04:19:52.908Z,18.47
2016-08-25T04:21:05.189Z,18.56
2016-08-25T04:22:17.471Z,18.76
2016-08-25T04:23:29.757Z,18.82
2016-08-25T04:24:40.636Z,18.78
2016-08-25T04:25:52.917Z,18.76
2016-08-25T04:27:04.486Z,18.87
2016-08-25T04:28:16.753Z,18.84
2016-08-25T04:29:28.330Z,18.89
2016-08-25T04:30:39.191Z,19.07
2016-08-25T04:31:51.470Z,19.23
2016-08-25T04:33:03.749Z,19.49
2016-08-25T04:34:15.345Z,19.64
2016-08-25T04:35:27.605Z,20.16
2016-08-25T04:36:39.877Z,20.6
2016-08-25T04:37:50.748Z,20.97
2016-08-25T04:39:03.029Z,21.33
2016-08-25T04:40:15.291Z,21.59
2016-08-25T04:41:26.853Z,21.82
2016-08-25T04:42:38.427Z,22.12
2016-08-25T04:43:48.593Z,22.24
2016-08-25T04:45:00.164Z,22.51
2016-08-25T04:46:11.737Z,22.75
2016-08-25T04:47:24.013Z,22.91
2016-08-25T04:48:36.301Z,23.14
2016-08-25T04:49:48.095Z,23.35
2016-08-25T04:50:58.978Z,23.53
2016-08-25T04:52:10.564Z,23.71
2016-08-25T04:53:22.821Z,23.85
2016-08-25T04:54:35.091Z,24.08
2016-08-25T04:55:47.364Z,24.26
2016-08-25T04:56:59.670Z,24.44
2016-08-25T04:58:10.548Z,24.58
2016-08-25T04:59:22.115Z,24.69
2016-08-25T05:00:33.707Z,24.82
2016-08-25T05:01:45.969Z,24.92
2016-08-25T05:02:58.254Z,24.89
2016-08-25T05:04:09.830Z,25.05
2016-08-25T05:05:21.396Z,25.12
2016-08-25T05:06:32.949Z,25.27
2016-08-25T05:07:44.521Z,25.33
2016-08-25T05:08:56.799Z,25.44
2016-08-25T05:10:07.677Z,25.54
2016-08-25T05:11:19.954Z,25.54
2016-08-25T05:12:31.527Z,25.57
2016-08-25T05:13:42.403Z,25.7
2016-08-25T05:14:53.964Z,25.84
2016-08-25T05:16:05.558Z,25.86
2016-08-25T05:17:17.839Z,26
2016-08-25T05:18:29.408Z,25.94
2016-08-25T05:19:40.979Z,26.11
2016-08-25T05:20:52.562Z,26.15
2016-08-25T05:22:04.129Z,26.2
2016-08-25T05:23:14.996Z,26.17
2016-08-25T05:24:26.569Z,26.22
2016-08-25T05:25:38.847Z,26.23
2016-08-25T05:26:50.436Z,26.44
2016-08-25T05:28:02.734Z,26.6
2016-08-25T05:29:14.318Z,26.64
2016-08-25T05:30:26.574Z,26.81
2016-08-25T05:31:37.452Z,26.79
2016-08-25T05:32:49.023Z,26.86
2016-08-25T05:34:00.617Z,26.94
2016-08-25T05:35:12.183Z,26.97
2016-08-25T05:36:24.507Z,26.94
2016-08-25T05:37:36.774Z,26.96
2016-08-25T05:38:49.065Z,26.96
2016-08-25T05:40:00.642Z,26.94
2016-08-25T05:41:12.916Z,26.31
2016-08-25T05:42:25.233Z,25.71
2016-08-25T05:43:36.805Z,25.37
2016-08-25T05:44:49.082Z,25.12
2016-08-25T05:46:00.649Z,25.34
2016-08-25T05:47:12.911Z,25.71
2016-08-25T05:48:25.193Z,25.67
2016-08-25T05:49:36.073Z,25.41
2016-08-25T05:50:48.356Z,25.08
2016-08-25T05:52:00.638Z,24.83
2016-08-25T05:53:12.916Z,24.74
2016-08-25T05:54:25.196Z,24.45
2016-08-25T05:55:37.472Z,24.64
2016-08-25T05:56:49.055Z,24.64
2016-08-25T05:58:01.341Z,24.52
2016-08-25T05:59:13.624Z,24.46
2016-08-25T06:00:25.202Z,24.32
2016-08-25T06:01:37.485Z,24.54
2016-08-25T06:02:49.763Z,24.82
2016-08-25T06:04:02.056Z,24.89
2016-08-25T06:05:13.621Z,24.77
2016-08-25T06:06:25.197Z,24.59
2016-08-25T06:07:36.768Z,24.33
2016-08-25T06:08:49.041Z,24.26
2016-08-25T06:10:01.344Z,24.29
2016-08-25T06:11:13.631Z,24.33
2016-08-25T06:12:25.920Z,24.44
2016-08-25T06:13:38.209Z,24.39
2016-08-25T06:14:49.757Z,24.36
2016-08-25T06:16:01.325Z,24.14
2016-08-25T06:17:13.589Z,24.11
2016-08-25T06:18:25.162Z,24.08
2016-08-25T06:19:37.445Z,23.93
2016-08-25T06:20:49.727Z,23.93
2016-08-25T06:22:02.011Z,23.96
2016-08-25T06:23:14.515Z,23.85
2016-08-25T06:24:26.790Z,23.81
2016-08-25T06:25:39.068Z,23.85
2016-08-25T06:26:51.372Z,23.79
2016-08-25T06:28:03.656Z,23.82
2016-08-25T06:29:15.243Z,23.89
2016-08-25T06:30:27.514Z,23.85
2016-08-25T06:31:39.777Z,23.89
2016-08-25T06:32:52.048Z,23.84
2016-08-25T06:34:04.323Z,23.81
2016-08-25T06:35:16.613Z,23.84
2016-08-25T06:36:28.219Z,23.85
2016-08-25T06:37:39.795Z,23.82
2016-08-25T06:38:50.662Z,23.84
2016-08-25T06:40:02.941Z,23.89
2016-08-25T06:41:15.197Z,23.87
2016-08-25T06:42:27.472Z,23.9
2016-08-25T06:43:39.767Z,23.9
2016-08-25T06:44:52.047Z,23.94
2016-08-25T06:46:04.343Z,23.97
2016-08-25T06:47:15.910Z,23.9
2016-08-25T06:48:27.498Z,23.94
2016-08-25T06:49:39.792Z,24.03
2016-08-25T06:50:52.065Z,24.02
2016-08-25T06:52:04.345Z,24.08
2016-08-25T06:53:16.631Z,24.03
2016-08-25T06:54:28.900Z,24.19
2016-08-25T06:55:41.173Z,24.14
2016-08-25T06:56:53.439Z,24.19
2016-08-25T06:58:05.746Z,24.22
2016-08-25T06:59:17.317Z,24.29
2016-08-25T07:00:29.578Z,24.27
2016-08-25T07:09:30.744Z,24.58
2016-08-25T07:10:42.311Z,24.69
2016-08-25T07:11:54.592Z,24.75
2016-08-25T07:13:06.879Z,24.7
2016-08-25T07:14:19.150Z,24.69
2016-08-25T07:15:31.432Z,24.85
2016-08-25T07:16:43.698Z,24.82
2016-08-25T07:17:56.009Z,24.78
2016-08-25T07:19:07.589Z,24.8
2016-08-25T07:20:19.859Z,24.93
2016-08-25T07:21:31.425Z,24.86
2016-08-25T07:22:43.000Z,24.92
2016-08-25T07:23:54.580Z,24.93
2016-08-25T07:25:06.854Z,24.97
2016-08-25T07:26:19.124Z,24.96
2016-08-25T07:27:29.984Z,24.97
2016-08-25T07:28:42.243Z,25.11
2016-08-25T07:29:54.528Z,25.14
2016-08-25T07:31:06.123Z,25.2
2016-08-25T07:32:17.701Z,25.3
2016-08-25T07:33:29.970Z,25.29
2016-08-25T07:34:41.553Z,25.33
2016-08-25T07:35:53.828Z,25.37
2016-08-25T07:37:05.395Z,25.51
2016-08-25T07:38:17.691Z,25.6
2016-08-25T07:39:29.265Z,25.63
2016-08-25T07:40:41.550Z,25.71
2016-08-25T07:41:53.819Z,25.74
2016-08-25T07:43:06.096Z,25.81
2016-08-25T07:44:18.360Z,25.91
2016-08-25T07:45:29.942Z,25.82
2016-08-25T07:46:42.218Z,25.78
2016-08-25T07:47:54.496Z,25.85
2016-08-25T07:49:05.354Z,25.91
2016-08-25T07:50:17.640Z,25.85
2016-08-25T07:51:29.230Z,25.96
2016-08-25T07:52:41.519Z,25.93
2016-08-25T07:53:53.805Z,26
2016-08-25T07:55:06.082Z,26.01
2016-08-25T07:56:18.406Z,26.06
2016-08-25T07:57:30.017Z,26.07
2016-08-25T07:58:41.617Z,26.12
2016-08-25T07:59:53.925Z,26.17
2016-08-25T08:01:06.220Z,26.16
2016-08-25T08:02:18.562Z,26.16
2016-08-25T08:03:30.872Z,26.2
2016-08-25T08:04:43.147Z,26.3
2016-08-25T08:05:54.735Z,26.27
2016-08-25T08:07:06.309Z,26.26
2016-08-25T08:08:17.896Z,26.31
2016-08-25T08:09:28.822Z,26.27
2016-08-25T08:10:41.098Z,26.31
2016-08-25T08:11:53.376Z,26.26
2016-08-25T08:13:04.957Z,26.41
2016-08-25T08:14:16.533Z,26.42
2016-08-25T08:15:28.814Z,26.59
2016-08-25T08:16:41.101Z,26.6
2016-08-25T08:17:52.702Z,26.61
2016-08-25T08:19:04.998Z,26.57
2016-08-25T08:20:17.302Z,26.67
2016-08-25T08:21:29.577Z,26.6
2016-08-25T08:22:41.871Z,26.74
2016-08-25T08:23:54.418Z,26.76
2016-08-25T08:25:06.014Z,26.76
2016-08-25T08:26:18.306Z,26.72
2016-08-25T08:27:30.609Z,26.82
2016-08-25T08:28:42.884Z,26.86
2016-08-25T08:29:55.189Z,26.89
2016-08-25T08:31:06.763Z,26.99
2016-08-25T08:32:19.061Z,27
2016-08-25T08:33:30.648Z,27
2016-08-25T08:34:42.947Z,27.11
2016-08-25T08:35:55.237Z,27.09
2016-08-25T08:37:07.529Z,27.13
2016-08-25T08:38:19.796Z,27.08
2016-08-25T08:39:32.061Z,27.16
2016-08-25T08:40:44.357Z,27.19
2016-08-25T08:41:56.655Z,27.31
2016-08-25T08:43:08.938Z,27.36
2016-08-25T08:44:21.224Z,27.51
2016-08-25T08:45:33.508Z,27.49
2016-08-25T08:46:45.782Z,27.57
2016-08-25T08:47:58.065Z,27.52
2016-08-25T08:49:08.942Z,27.49
2016-08-25T08:50:21.237Z,27.72
2016-08-25T08:51:33.508Z,27.74
2016-08-25T08:52:45.068Z,27.75
2016-08-25T08:53:57.345Z,27.68
2016-08-25T08:55:09.655Z,27.68
2016-08-25T08:56:21.226Z,27.75
2016-08-25T08:57:32.821Z,27.91
2016-08-25T08:58:45.088Z,27.9
2016-08-25T08:59:57.378Z,27.9
2016-08-25T09:01:09.678Z,27.89
2016-08-25T09:02:21.254Z,27.91
2016-08-25T09:03:32.843Z,27.96
2016-08-25T09:04:45.119Z,27.99
2016-08-25T09:05:57.397Z,28.03
2016-08-25T09:07:08.977Z,28.11
2016-08-25T09:08:21.266Z,28.21
2016-08-25T09:09:32.849Z,28.23
2016-08-25T09:10:45.139Z,28.21
2016-08-25T09:11:57.417Z,28.17
2016-08-25T09:13:09.700Z,28.27
2016-08-25T09:14:21.995Z,28.26
2016-08-25T09:15:33.597Z,28.3
2016-08-25T09:16:44.475Z,28.31
2016-08-25T09:17:56.065Z,28.31
2016-08-25T09:19:08.367Z,28.42
2016-08-25T09:20:20.662Z,28.36
2016-08-25T09:21:32.945Z,28.45
2016-08-25T09:22:45.212Z,28.49
2016-08-25T09:23:56.790Z,28.48
2016-08-25T09:25:09.088Z,28.49
2016-08-25T09:26:21.360Z,28.53
2016-08-25T09:27:33.645Z,28.55
2016-08-25T09:28:45.927Z,28.67
2016-08-25T09:29:58.212Z,28.68
2016-08-25T09:31:09.821Z,28.76
2016-08-25T09:32:21.403Z,28.88
2016-08-25T09:33:33.698Z,28.8
2016-08-25T09:34:45.977Z,28.86
2016-08-25T09:35:58.268Z,29.01
2016-08-25T09:37:09.144Z,29.08
2016-08-25T09:38:20.733Z,29.23
2016-08-25T09:39:32.307Z,29.15
2016-08-25T09:40:43.897Z,29.14
2016-08-25T09:41:56.195Z,29.2
2016-08-25T09:43:08.492Z,29.2
2016-08-25T09:44:20.083Z,29.08
2016-08-25T09:45:31.665Z,29.23
2016-08-25T09:46:43.948Z,29.26
2016-08-25T09:47:55.522Z,29.35
2016-08-25T09:49:07.796Z,29.35
2016-08-25T09:50:20.088Z,29.33
2016-08-25T09:51:32.391Z,29.45
2016-08-25T09:52:44.682Z,29.35
2016-08-25T09:53:56.953Z,29.4
2016-08-25T09:55:09.234Z,29.42
2016-08-25T09:56:20.914Z,29.47
2016-08-25T09:57:32.509Z,29.52
2016-08-25T09:58:44.792Z,29.63
2016-08-25T09:59:56.362Z,29.65
2016-08-25T10:01:08.663Z,29.52
2016-08-25T10:02:20.936Z,29.52
2016-08-25T10:03:33.227Z,29.55
2016-08-25T10:04:45.506Z,29.52
2016-08-25T10:05:57.789Z,29.58
2016-08-25T10:07:08.676Z,29.54
2016-08-25T10:08:20.976Z,29.51
2016-08-25T10:09:32.556Z,29.52
2016-08-25T10:10:44.846Z,29.54
2016-08-25T10:11:55.720Z,29.67
2016-08-25T10:13:07.302Z,29.61
2016-08-25T10:14:19.573Z,29.61
2016-08-25T10:15:31.879Z,29.73
2016-08-25T10:16:44.197Z,29.75
2016-08-25T10:17:56.494Z,29.77
2016-08-25T10:19:08.335Z,29.85
2016-08-25T10:20:20.634Z,29.97
2016-08-25T10:21:32.210Z,29.97
2016-08-25T10:22:43.810Z,30.03
2016-08-25T10:23:56.107Z,30
2016-08-25T10:25:08.406Z,30
2016-08-25T10:26:20.688Z,30.03
2016-08-25T10:27:32.994Z,30.1
2016-08-25T10:28:45.296Z,30.19
2016-08-25T10:29:57.583Z,30.24
2016-08-25T10:31:09.185Z,30.16
2016-08-25T10:32:20.762Z,30.18
2016-08-25T10:33:33.044Z,30.22
2016-08-25T10:34:45.328Z,30.14
2016-08-25T10:35:57.617Z,30.26
2016-08-25T10:37:09.211Z,30.25
2016-08-25T10:38:21.503Z,30.31
2016-08-25T10:39:33.787Z,30.39
2016-08-25T10:40:46.068Z,30.35
2016-08-25T10:41:57.656Z,30.31
2016-08-25T10:43:09.930Z,30.32
2016-08-25T10:44:22.226Z,30.39
2016-08-25T10:45:34.511Z,30.48
2016-08-25T10:46:45.382Z,30.52
2016-08-25T10:47:57.674Z,30.54
2016-08-25T10:49:09.955Z,30.6
2016-08-25T10:50:22.238Z,30.56
2016-08-25T10:51:34.518Z,30.67
2016-08-25T10:52:46.110Z,30.75
2016-08-25T10:53:58.404Z,30.69
2016-08-25T10:55:09.984Z,30.67
2016-08-25T10:56:21.557Z,30.75
2016-08-25T10:57:33.860Z,30.84
2016-08-25T10:58:46.138Z,30.86
2016-08-25T10:59:58.428Z,30.96
2016-08-25T11:01:10.713Z,31
2016-08-25T11:02:23.000Z,30.99
2016-08-25T11:03:35.282Z,31.18
2016-08-25T11:04:46.877Z,31.19
2016-08-25T11:05:59.160Z,31.34
2016-08-25T11:07:11.442Z,31.43
2016-08-25T11:08:23.725Z,31.44
2016-08-25T11:09:36.064Z,31.45
2016-08-25T11:10:48.352Z,31.53
2016-08-25T11:12:00.626Z,31.68
2016-08-25T11:13:12.922Z,31.7
2016-08-25T11:14:25.222Z,31.7
2016-08-25T11:15:36.815Z,31.72
2016-08-25T11:16:49.109Z,31.78
2016-08-25T11:18:01.390Z,31.72
2016-08-25T11:19:13.696Z,31.88
2016-08-25T11:20:25.312Z,31.78
2016-08-25T11:21:37.587Z,31.74
2016-08-25T11:22:49.160Z,31.82
2016-08-25T11:24:01.457Z,31.82
2016-08-25T11:25:13.731Z,31.78
2016-08-25T11:26:26.025Z,31.86
2016-08-25T11:27:38.301Z,31.78
2016-08-25T11:28:50.578Z,31.77
2016-08-25T11:30:02.164Z,31.81
2016-08-25T11:31:13.752Z,31.87
2016-08-25T11:32:26.026Z,31.82
2016-08-25T11:33:37.601Z,31.87
2016-08-25T11:34:49.893Z,31.87
2016-08-25T11:36:01.477Z,31.88
2016-08-25T11:37:13.762Z,31.88
2016-08-25T11:38:26.064Z,31.8
2016-08-25T11:39:37.650Z,31.87
2016-08-25T11:40:49.252Z,31.97
2016-08-25T11:42:00.855Z,31.94
2016-08-25T11:43:13.141Z,31.97
2016-08-25T11:44:24.730Z,31.93
2016-08-25T11:45:36.307Z,32
2016-08-25T11:46:47.885Z,32.08
2016-08-25T11:48:00.183Z,32.01
2016-08-25T11:49:11.741Z,32.08
2016-08-25T11:50:24.057Z,32.12
2016-08-25T11:51:34.932Z,32.28
2016-08-25T11:52:47.214Z,32.42
2016-08-25T11:53:59.508Z,32.39
2016-08-25T11:55:11.792Z,32.54
2016-08-25T11:56:22.680Z,32.68
2016-08-25T11:57:34.977Z,32.72
2016-08-25T11:58:47.251Z,32.72
2016-08-25T11:59:59.535Z,32.79
2016-08-25T12:01:11.819Z,32.81
2016-08-25T12:02:24.097Z,32.9
2016-08-25T12:03:35.698Z,32.84
2016-08-25T12:04:47.297Z,32.83
2016-08-25T12:05:58.895Z,32.71
2016-08-25T12:07:11.196Z,32.69
2016-08-25T12:08:23.495Z,32.72
2016-08-25T12:09:34.418Z,32.74
2016-08-25T12:10:46.015Z,32.72
2016-08-25T12:11:58.299Z,32.69
2016-08-25T12:13:10.590Z,32.68
2016-08-25T12:14:22.167Z,32.75
2016-08-25T12:15:34.472Z,32.65
2016-08-25T12:16:46.765Z,32.74
2016-08-25T12:17:59.051Z,32.87
2016-08-25T12:19:11.331Z,33.03
2016-08-25T12:20:22.921Z,33.17
2016-08-25T12:21:35.199Z,33.17
2016-08-25T12:22:47.464Z,33.21
2016-08-25T12:23:59.050Z,33.24
2016-08-25T12:25:10.632Z,33.24
2016-08-25T12:26:22.917Z,33.29
2016-08-25T12:27:35.209Z,33.28
2016-08-25T12:28:46.783Z,33.23
2016-08-25T12:29:59.058Z,33.2
2016-08-25T12:31:11.356Z,33.11
2016-08-25T12:32:23.683Z,32.99
2016-08-25T12:33:35.260Z,33.2
2016-08-25T12:34:47.538Z,33.17
2016-08-25T12:35:59.822Z,33.26
2016-08-25T12:37:12.110Z,33.36
2016-08-25T12:38:24.392Z,33.4
2016-08-25T12:39:36.680Z,33.4
2016-08-25T12:40:48.981Z,33.48
2016-08-25T12:42:00.575Z,33.5
2016-08-25T12:43:12.154Z,33.59
2016-08-25T12:44:24.445Z,33.48
2016-08-25T12:45:36.873Z,33.61
2016-08-25T12:46:49.176Z,33.62
2016-08-25T12:48:01.467Z,33.71
2016-08-25T12:49:13.053Z,33.65
2016-08-25T12:50:25.346Z,33.68
2016-08-25T12:51:37.644Z,33.66
2016-08-25T12:52:49.236Z,33.52
2016-08-25T12:54:00.835Z,33.43
2016-08-25T12:55:13.142Z,33.34
2016-08-25T12:56:25.434Z,33.28
2016-08-25T12:57:37.726Z,33.16
2016-08-25T12:58:49.314Z,33.17
2016-08-25T13:00:01.591Z,33.17
2016-08-25T13:01:13.182Z,33.21
2016-08-25T13:02:25.465Z,33.16
2016-08-25T13:03:37.766Z,33.05
2016-08-25T13:11:18.060Z,33.16
2016-08-25T13:12:30.606Z,33.13
2016-08-25T13:13:43.314Z,33.02
2016-08-25T13:14:55.366Z,32.99
2016-08-25T13:16:07.661Z,32.9
2016-08-25T13:17:19.228Z,32.86
2016-08-25T13:18:31.929Z,32.83
2016-08-25T13:19:44.440Z,32.75
2016-08-25T13:20:56.783Z,32.76
2016-08-25T13:22:09.263Z,32.67
2016-08-25T13:23:21.783Z,32.75
2016-08-25T13:24:34.105Z,32.72
2016-08-25T13:25:46.398Z,32.74
2016-08-25T13:26:58.987Z,32.64
2016-08-25T13:28:11.302Z,32.67
2016-08-25T13:29:22.914Z,32.65
2016-08-25T13:30:35.185Z,32.68
2016-08-25T13:31:47.477Z,32.72
2016-08-25T13:32:59.759Z,32.69
2016-08-25T13:34:12.257Z,32.65
2016-08-25T13:35:24.542Z,32.56
2016-08-25T13:36:36.830Z,32.5
2016-08-25T13:37:49.131Z,32.56
2016-08-25T13:39:01.410Z,32.59
2016-08-25T13:40:12.999Z,32.5
2016-08-25T13:41:25.292Z,32.67
2016-08-25T13:42:37.603Z,32.68
2016-08-25T13:43:49.903Z,32.61
2016-08-25T13:45:02.194Z,32.71
2016-08-25T13:46:14.482Z,32.69
2016-08-25T13:47:27.204Z,32.71
2016-08-25T13:48:39.469Z,32.74
2016-08-25T13:49:51.751Z,32.59
2016-08-25T13:51:04.023Z,32.64
2016-08-25T13:52:16.332Z,32.64
2016-08-25T13:53:28.642Z,32.61
2016-08-25T13:54:40.928Z,32.61
2016-08-25T13:55:52.507Z,32.62
2016-08-25T13:57:04.085Z,32.47
2016-08-25T13:58:16.397Z,32.5
2016-08-25T13:59:28.687Z,32.46
2016-08-25T14:00:38.852Z,32.46
2016-08-25T14:01:51.140Z,32.43
2016-08-25T14:03:03.445Z,32.52
2016-08-25T14:04:15.727Z,32.57
2016-08-25T14:05:27.319Z,32.5
2016-08-25T14:06:39.609Z,32.5
2016-08-25T14:07:51.906Z,32.64
2016-08-25T14:09:04.158Z,32.61
2016-08-25T14:10:16.442Z,32.71
2016-08-25T14:11:28.749Z,32.71
2016-08-25T14:12:40.358Z,32.68
2016-08-25T14:13:52.632Z,32.67
2016-08-25T14:15:04.916Z,32.65
2016-08-25T14:16:16.489Z,32.67
2016-08-25T14:17:28.785Z,32.61
2016-08-25T14:18:41.051Z,32.64
2016-08-25T14:19:52.620Z,32.49
2016-08-25T14:21:04.194Z,32.47
2016-08-25T14:22:16.473Z,32.47
2016-08-25T14:23:28.074Z,32.47
2016-08-25T14:24:40.332Z,32.5
2016-08-25T14:25:52.614Z,32.47
2016-08-25T14:27:04.907Z,32.46
2016-08-25T14:28:16.481Z,32.42
2016-08-25T14:29:28.752Z,32.35
2016-08-25T14:30:40.315Z,32.34
2016-08-25T14:31:51.875Z,32.35
2016-08-25T14:33:04.152Z,32.38
2016-08-25T14:34:16.429Z,32.34
2016-08-25T14:35:28.708Z,32.23
2016-08-25T14:36:40.983Z,32.27
2016-08-25T14:37:53.310Z,32.13
2016-08-25T14:39:05.584Z,32.13
2016-08-25T14:40:17.185Z,32.08
2016-08-25T14:41:28.055Z,32.06
2016-08-25T14:42:40.339Z,32.06
2016-08-25T14:43:52.615Z,32.05
2016-08-25T14:45:04.910Z,32
2016-08-25T14:46:17.222Z,32
2016-08-25T14:47:29.508Z,31.94
2016-08-25T14:48:41.792Z,31.9
2016-08-25T14:49:54.077Z,31.78
2016-08-25T14:51:05.651Z,31.82
2016-08-25T14:52:17.919Z,31.82
2016-08-25T14:53:30.218Z,31.74
2016-08-25T14:54:41.791Z,31.86
2016-08-25T14:55:54.218Z,31.77
2016-08-25T14:57:06.083Z,31.86
2016-08-25T14:58:18.406Z,31.86
2016-08-25T14:59:30.709Z,31.91
2016-08-25T15:00:43.043Z,31.93
2016-08-25T15:01:54.675Z,31.81
2016-08-25T15:03:07.012Z,31.78
2016-08-25T15:04:19.347Z,31.81
2016-08-25T15:05:31.682Z,31.82
2016-08-25T15:06:44.006Z,31.8
2016-08-25T15:07:55.628Z,31.74
2016-08-25T15:09:07.931Z,31.65
2016-08-25T15:10:19.577Z,31.75
2016-08-25T15:11:31.228Z,31.71
2016-08-25T15:12:43.554Z,31.65
2016-08-25T15:13:55.167Z,31.65
2016-08-25T15:15:07.492Z,31.55
2016-08-25T15:16:19.826Z,31.49
2016-08-25T15:17:32.145Z,31.52
2016-08-25T15:18:44.462Z,31.47
2016-08-25T15:19:56.777Z,31.59
2016-08-25T15:21:09.088Z,31.44
2016-08-25T15:22:21.406Z,31.55
2016-08-25T15:23:33.755Z,31.56
2016-08-25T15:24:46.067Z,31.53
2016-08-25T15:25:56.988Z,31.52
2016-08-25T15:27:09.305Z,31.59
2016-08-25T15:28:21.613Z,31.52
2016-08-25T15:29:33.236Z,31.49
2016-08-25T15:30:45.551Z,31.36
2016-08-25T15:31:57.867Z,31.38
2016-08-25T15:33:10.204Z,31.31
2016-08-25T15:34:21.826Z,31.33
2016-08-25T15:35:34.129Z,31.31
2016-08-25T15:36:46.449Z,31.33
2016-08-25T15:37:58.081Z,31.23
2016-08-25T15:39:09.678Z,31.19
2016-08-25T15:40:22.012Z,31.18
2016-08-25T15:41:34.353Z,31.18
2016-08-25T15:42:46.687Z,31.18
2016-08-25T15:43:59.032Z,31.1
2016-08-25T15:45:11.346Z,30.99
2016-08-25T15:46:23.645Z,31.04
2016-08-25T15:47:35.972Z,31.03
2016-08-25T15:48:48.288Z,31.01
2016-08-25T15:50:00.593Z,31
2016-08-25T15:51:12.220Z,31.04
2016-08-25T15:52:24.557Z,31.04
2016-08-25T15:53:36.887Z,31.04
2016-08-25T15:54:49.201Z,30.96
2016-08-25T15:56:01.521Z,30.93
2016-08-25T15:57:12.444Z,30.93
2016-08-25T15:58:23.346Z,30.86
2016-08-25T15:59:35.667Z,30.78
2016-08-25T16:00:47.996Z,30.82
2016-08-25T16:02:00.318Z,30.77
2016-08-25T16:03:12.623Z,30.73
2016-08-25T16:04:24.928Z,30.63
2016-08-25T16:05:37.248Z,30.57
2016-08-25T16:06:48.853Z,30.57
2016-08-25T16:08:01.197Z,30.51
2016-08-25T16:09:12.790Z,30.49
2016-08-25T16:10:25.083Z,30.39
2016-08-25T16:11:37.445Z,30.35
2016-08-25T16:12:49.779Z,30.34
2016-08-25T16:14:02.097Z,30.39
2016-08-25T16:15:14.421Z,30.37
2016-08-25T16:16:26.722Z,30.29